sensor_id;sensor_type;location;lat;lon;timestamp;P1;durP1;ratioP1;P2;durP2;ratioP2
20067;SDS011;10194;50.824;7.134;2023-04-24T00:00:00;126.63;;;64.10;;
20067;SDS011;10194;50.824;7.134;2023-04-24T00:02:30;127.20;;;64.33;;
20067;SDS011;10194;50.824;7.134;2023-04-24T00:04:57;133.13;;;66.13;;
20067;SDS011;10194;50.824;7.134;2023-04-24T00:07:27;126.53;;;64.27;;
20067;SDS011;10194;50.824;7.134;2023-04-24T00:09:52;126.70;;;64.30;;
20067;SDS011;10194;50.824;7.134;2023-04-24T00:12:19;127.83;;;64.87;;
20067;SDS011;10194;50.824;7.134;2023-04-24T00:14:45;127.50;;;65.20;;
20067;SDS011;10194;50.824;7.134;2023-04-24T00:17:11;127.00;;;64.87;;
20067;SDS011;10194;50.824;7.134;2023-04-24T00:19:36;129.00;;;64.20;;
20067;SDS011;10194;50.824;7.134;2023-04-24T00:22:02;133.07;;;66.50;;
20067;SDS011;10194;50.824;7.134;2023-04-24T00:24:28;127.13;;;64.33;;
20067;SDS011;10194;50.824;7.134;2023-04-24T00:26:54;125.53;;;63.83;;
20067;SDS011;10194;50.824;7.134;2023-04-24T00:29:20;131.47;;;65.60;;
20067;SDS011;10194;50.824;7.134;2023-04-24T00:31:46;127.77;;;64.33;;
20067;SDS011;10194;50.824;7.134;2023-04-24T00:34:12;126.80;;;64.10;;
20067;SDS011;10194;50.824;7.134;2023-04-24T00:36:37;127.17;;;64.23;;
20067;SDS011;10194;50.824;7.134;2023-04-24T00:39:03;125.97;;;63.77;;
20067;SDS011;10194;50.824;7.134;2023-04-24T00:41:29;126.00;;;64.43;;
20067;SDS011;10194;50.824;7.134;2023-04-24T00:43:55;125.33;;;64.20;;
20067;SDS011;10194;50.824;7.134;2023-04-24T00:46:21;127.60;;;64.23;;
20067;SDS011;10194;50.824;7.134;2023-04-24T00:48:47;126.17;;;64.13;;
20067;SDS011;10194;50.824;7.134;2023-04-24T00:51:13;125.17;;;63.57;;
20067;SDS011;10194;50.824;7.134;2023-04-24T00:53:38;126.37;;;64.77;;
20067;SDS011;10194;50.824;7.134;2023-04-24T00:56:05;126.17;;;64.27;;
20067;SDS011;10194;50.824;7.134;2023-04-24T00:58:30;125.50;;;64.33;;
20067;SDS011;10194;50.824;7.134;2023-04-24T01:00:57;127.37;;;64.23;;
20067;SDS011;10194;50.824;7.134;2023-04-24T01:03:26;125.63;;;63.73;;
20067;SDS011;10194;50.824;7.134;2023-04-24T01:05:56;127.80;;;64.40;;
20067;SDS011;10194;50.824;7.134;2023-04-24T01:08:23;126.80;;;64.23;;
20067;SDS011;10194;50.824;7.134;2023-04-24T01:10:51;126.47;;;64.10;;
20067;SDS011;10194;50.824;7.134;2023-04-24T01:13:18;126.97;;;64.73;;
20067;SDS011;10194;50.824;7.134;2023-04-24T01:15:45;127.60;;;64.23;;
20067;SDS011;10194;50.824;7.134;2023-04-24T01:18:12;126.53;;;64.47;;
20067;SDS011;10194;50.824;7.134;2023-04-24T01:20:39;128.03;;;65.00;;
20067;SDS011;10194;50.824;7.134;2023-04-24T01:23:07;127.83;;;64.30;;
20067;SDS011;10194;50.824;7.134;2023-04-24T01:25:33;127.53;;;64.63;;
20067;SDS011;10194;50.824;7.134;2023-04-24T01:27:59;127.57;;;64.57;;
20067;SDS011;10194;50.824;7.134;2023-04-24T01:30:25;128.33;;;64.97;;
20067;SDS011;10194;50.824;7.134;2023-04-24T01:32:52;127.27;;;64.37;;
20067;SDS011;10194;50.824;7.134;2023-04-24T01:35:18;131.80;;;65.93;;
20067;SDS011;10194;50.824;7.134;2023-04-24T01:37:45;130.80;;;66.33;;
20067;SDS011;10194;50.824;7.134;2023-04-24T01:40:11;129.73;;;66.93;;
20067;SDS011;10194;50.824;7.134;2023-04-24T01:42:36;128.33;;;66.73;;
20067;SDS011;10194;50.824;7.134;2023-04-24T01:45:03;127.50;;;67.33;;
20067;SDS011;10194;50.824;7.134;2023-04-24T01:47:31;129.83;;;67.37;;
20067;SDS011;10194;50.824;7.134;2023-04-24T01:49:57;126.77;;;66.23;;
20067;SDS011;10194;50.824;7.134;2023-04-24T01:52:23;128.97;;;66.83;;
20067;SDS011;10194;50.824;7.134;2023-04-24T01:54:49;127.40;;;69.43;;
20067;SDS011;10194;50.824;7.134;2023-04-24T01:57:16;127.60;;;68.17;;
20067;SDS011;10194;50.824;7.134;2023-04-24T01:59:42;130.43;;;71.03;;
20067;SDS011;10194;50.824;7.134;2023-04-24T02:02:07;128.03;;;69.87;;
20067;SDS011;10194;50.824;7.134;2023-04-24T02:04:33;131.30;;;72.57;;
20067;SDS011;10194;50.824;7.134;2023-04-24T02:06:59;129.80;;;71.97;;
20067;SDS011;10194;50.824;7.134;2023-04-24T02:09:25;136.40;;;74.77;;
20067;SDS011;10194;50.824;7.134;2023-04-24T02:11:50;135.27;;;74.77;;
20067;SDS011;10194;50.824;7.134;2023-04-24T02:14:16;134.83;;;75.70;;
20067;SDS011;10194;50.824;7.134;2023-04-24T02:16:42;132.83;;;73.23;;
20067;SDS011;10194;50.824;7.134;2023-04-24T02:19:08;132.03;;;72.90;;
20067;SDS011;10194;50.824;7.134;2023-04-24T02:21:35;130.93;;;72.40;;
20067;SDS011;10194;50.824;7.134;2023-04-24T02:24:01;135.63;;;74.13;;
20067;SDS011;10194;50.824;7.134;2023-04-24T02:26:27;132.47;;;72.50;;
20067;SDS011;10194;50.824;7.134;2023-04-24T02:28:53;133.87;;;73.53;;
20067;SDS011;10194;50.824;7.134;2023-04-24T02:31:18;133.70;;;75.23;;
20067;SDS011;10194;50.824;7.134;2023-04-24T02:33:44;132.63;;;76.93;;
20067;SDS011;10194;50.824;7.134;2023-04-24T02:36:10;136.40;;;82.97;;
20067;SDS011;10194;50.824;7.134;2023-04-24T02:38:35;138.83;;;88.27;;
20067;SDS011;10194;50.824;7.134;2023-04-24T02:41:01;141.17;;;90.57;;
20067;SDS011;10194;50.824;7.134;2023-04-24T02:43:31;143.53;;;95.63;;
20067;SDS011;10194;50.824;7.134;2023-04-24T02:45:57;146.20;;;96.37;;
20067;SDS011;10194;50.824;7.134;2023-04-24T02:48:23;142.47;;;94.93;;
20067;SDS011;10194;50.824;7.134;2023-04-24T02:50:49;140.50;;;91.10;;
20067;SDS011;10194;50.824;7.134;2023-04-24T02:53:15;143.57;;;98.00;;
20067;SDS011;10194;50.824;7.134;2023-04-24T02:55:41;145.10;;;98.67;;
20067;SDS011;10194;50.824;7.134;2023-04-24T02:58:07;145.43;;;102.70;;
20067;SDS011;10194;50.824;7.134;2023-04-24T03:00:33;151.00;;;107.23;;
20067;SDS011;10194;50.824;7.134;2023-04-24T03:02:59;145.70;;;100.50;;
20067;SDS011;10194;50.824;7.134;2023-04-24T03:05:25;151.40;;;109.90;;
20067;SDS011;10194;50.824;7.134;2023-04-24T03:07:52;148.90;;;103.73;;
20067;SDS011;10194;50.824;7.134;2023-04-24T03:10:18;146.63;;;100.00;;
20067;SDS011;10194;50.824;7.134;2023-04-24T03:12:43;148.47;;;98.87;;
20067;SDS011;10194;50.824;7.134;2023-04-24T03:15:09;148.43;;;103.37;;
20067;SDS011;10194;50.824;7.134;2023-04-24T03:17:35;151.63;;;113.00;;
20067;SDS011;10194;50.824;7.134;2023-04-24T03:20:02;159.43;;;127.83;;
20067;SDS011;10194;50.824;7.134;2023-04-24T03:22:30;158.57;;;123.83;;
20067;SDS011;10194;50.824;7.134;2023-04-24T03:24:57;159.30;;;123.90;;
20067;SDS011;10194;50.824;7.134;2023-04-24T03:27:23;154.13;;;118.20;;
20067;SDS011;10194;50.824;7.134;2023-04-24T03:29:49;158.67;;;119.47;;
20067;SDS011;10194;50.824;7.134;2023-04-24T03:32:19;160.33;;;132.47;;
20067;SDS011;10194;50.824;7.134;2023-04-24T03:34:44;156.43;;;123.83;;
20067;SDS011;10194;50.824;7.134;2023-04-24T03:37:10;154.50;;;117.33;;
20067;SDS011;10194;50.824;7.134;2023-04-24T03:39:36;154.80;;;117.17;;
20067;SDS011;10194;50.824;7.134;2023-04-24T03:42:01;150.87;;;112.70;;
20067;SDS011;10194;50.824;7.134;2023-04-24T03:44:28;153.17;;;114.00;;
20067;SDS011;10194;50.824;7.134;2023-04-24T03:46:53;152.63;;;115.37;;
20067;SDS011;10194;50.824;7.134;2023-04-24T03:49:19;162.90;;;124.43;;
20067;SDS011;10194;50.824;7.134;2023-04-24T03:51:45;158.40;;;125.83;;
20067;SDS011;10194;50.824;7.134;2023-04-24T03:54:11;166.87;;;138.50;;
20067;SDS011;10194;50.824;7.134;2023-04-24T03:56:37;169.67;;;142.47;;
20067;SDS011;10194;50.824;7.134;2023-04-24T03:59:03;167.73;;;145.27;;
20067;SDS011;10194;50.824;7.134;2023-04-24T04:01:28;169.60;;;145.43;;
20067;SDS011;10194;50.824;7.134;2023-04-24T04:03:55;179.37;;;159.93;;
20067;SDS011;10194;50.824;7.134;2023-04-24T04:06:21;174.53;;;155.47;;
20067;SDS011;10194;50.824;7.134;2023-04-24T04:08:47;168.33;;;145.03;;
20067;SDS011;10194;50.824;7.134;2023-04-24T04:11:13;165.27;;;141.87;;
20067;SDS011;10194;50.824;7.134;2023-04-24T04:13:39;171.93;;;152.83;;
20067;SDS011;10194;50.824;7.134;2023-04-24T04:16:04;175.40;;;156.23;;
20067;SDS011;10194;50.824;7.134;2023-04-24T04:18:30;178.83;;;159.33;;
20067;SDS011;10194;50.824;7.134;2023-04-24T04:20:56;179.83;;;160.23;;
20067;SDS011;10194;50.824;7.134;2023-04-24T04:23:22;190.40;;;169.83;;
20067;SDS011;10194;50.824;7.134;2023-04-24T04:25:48;186.00;;;165.90;;
20067;SDS011;10194;50.824;7.134;2023-04-24T04:28:15;178.30;;;158.37;;
20067;SDS011;10194;50.824;7.134;2023-04-24T04:30:40;184.80;;;165.17;;
20067;SDS011;10194;50.824;7.134;2023-04-24T04:33:07;176.07;;;156.13;;
20067;SDS011;10194;50.824;7.134;2023-04-24T04:35:33;172.10;;;151.27;;
20067;SDS011;10194;50.824;7.134;2023-04-24T04:38:00;175.07;;;155.40;;
20067;SDS011;10194;50.824;7.134;2023-04-24T04:40:25;181.70;;;161.80;;
20067;SDS011;10194;50.824;7.134;2023-04-24T04:42:53;182.73;;;162.93;;
20067;SDS011;10194;50.824;7.134;2023-04-24T04:45:19;178.10;;;158.17;;
20067;SDS011;10194;50.824;7.134;2023-04-24T04:47:45;177.77;;;158.27;;
20067;SDS011;10194;50.824;7.134;2023-04-24T04:50:11;169.17;;;143.40;;
20067;SDS011;10194;50.824;7.134;2023-04-24T04:52:37;170.63;;;146.50;;
20067;SDS011;10194;50.824;7.134;2023-04-24T04:55:03;161.60;;;131.93;;
20067;SDS011;10194;50.824;7.134;2023-04-24T04:57:30;160.87;;;125.60;;
20067;SDS011;10194;50.824;7.134;2023-04-24T04:59:56;155.80;;;116.27;;
20067;SDS011;10194;50.824;7.134;2023-04-24T05:02:21;155.73;;;121.50;;
20067;SDS011;10194;50.824;7.134;2023-04-24T05:04:47;153.30;;;114.37;;
20067;SDS011;10194;50.824;7.134;2023-04-24T05:07:13;162.30;;;120.83;;
20067;SDS011;10194;50.824;7.134;2023-04-24T05:09:38;156.43;;;121.17;;
20067;SDS011;10194;50.824;7.134;2023-04-24T05:12:04;160.33;;;125.77;;
20067;SDS011;10194;50.824;7.134;2023-04-24T05:14:30;163.27;;;133.70;;
20067;SDS011;10194;50.824;7.134;2023-04-24T05:16:56;164.10;;;132.60;;
20067;SDS011;10194;50.824;7.134;2023-04-24T05:19:21;173.33;;;142.83;;
20067;SDS011;10194;50.824;7.134;2023-04-24T05:21:47;168.77;;;144.30;;
20067;SDS011;10194;50.824;7.134;2023-04-24T05:24:13;177.93;;;158.50;;
20067;SDS011;10194;50.824;7.134;2023-04-24T05:26:38;181.60;;;161.93;;
20067;SDS011;10194;50.824;7.134;2023-04-24T05:29:04;187.13;;;167.07;;
20067;SDS011;10194;50.824;7.134;2023-04-24T05:31:30;198.47;;;177.67;;
20067;SDS011;10194;50.824;7.134;2023-04-24T05:33:56;213.20;;;191.87;;
20067;SDS011;10194;50.824;7.134;2023-04-24T05:36:22;219.50;;;197.97;;
20067;SDS011;10194;50.824;7.134;2023-04-24T05:38:47;224.60;;;202.57;;
20067;SDS011;10194;50.824;7.134;2023-04-24T05:41:13;227.97;;;206.10;;
20067;SDS011;10194;50.824;7.134;2023-04-24T05:43:40;221.80;;;200.17;;
20067;SDS011;10194;50.824;7.134;2023-04-24T05:46:05;213.20;;;192.07;;
20067;SDS011;10194;50.824;7.134;2023-04-24T05:48:31;204.70;;;184.00;;
20067;SDS011;10194;50.824;7.134;2023-04-24T05:50:57;200.90;;;180.13;;
20067;SDS011;10194;50.824;7.134;2023-04-24T05:53:22;192.97;;;172.87;;
20067;SDS011;10194;50.824;7.134;2023-04-24T05:55:48;195.70;;;175.67;;
20067;SDS011;10194;50.824;7.134;2023-04-24T05:58:14;188.07;;;168.20;;
20067;SDS011;10194;50.824;7.134;2023-04-24T06:00:40;192.13;;;171.77;;
20067;SDS011;10194;50.824;7.134;2023-04-24T06:03:07;172.23;;;149.53;;
20067;SDS011;10194;50.824;7.134;2023-04-24T06:05:33;180.80;;;161.20;;
20067;SDS011;10194;50.824;7.134;2023-04-24T06:07:59;194.97;;;174.80;;
20067;SDS011;10194;50.824;7.134;2023-04-24T06:10:25;184.60;;;165.00;;
20067;SDS011;10194;50.824;7.134;2023-04-24T06:12:51;176.90;;;157.40;;
20067;SDS011;10194;50.824;7.134;2023-04-24T06:15:17;184.73;;;164.80;;
20067;SDS011;10194;50.824;7.134;2023-04-24T06:17:43;190.03;;;170.07;;
20067;SDS011;10194;50.824;7.134;2023-04-24T06:20:08;187.53;;;167.50;;
20067;SDS011;10194;50.824;7.134;2023-04-24T06:22:35;182.43;;;162.90;;
20067;SDS011;10194;50.824;7.134;2023-04-24T06:25:01;180.93;;;161.27;;
20067;SDS011;10194;50.824;7.134;2023-04-24T06:27:27;179.47;;;159.97;;
20067;SDS011;10194;50.824;7.134;2023-04-24T06:29:53;171.53;;;149.53;;
20067;SDS011;10194;50.824;7.134;2023-04-24T06:32:23;163.53;;;135.47;;
20067;SDS011;10194;50.824;7.134;2023-04-24T06:34:52;157.70;;;124.60;;
20067;SDS011;10194;50.824;7.134;2023-04-24T06:37:19;165.97;;;134.73;;
20067;SDS011;10194;50.824;7.134;2023-04-24T06:39:45;160.27;;;126.23;;
20067;SDS011;10194;50.824;7.134;2023-04-24T06:42:11;165.00;;;131.40;;
20067;SDS011;10194;50.824;7.134;2023-04-24T06:44:37;163.77;;;136.37;;
20067;SDS011;10194;50.824;7.134;2023-04-24T06:47:06;168.20;;;139.07;;
20067;SDS011;10194;50.824;7.134;2023-04-24T06:49:34;169.67;;;131.80;;
20067;SDS011;10194;50.824;7.134;2023-04-24T06:52:01;169.40;;;136.03;;
20067;SDS011;10194;50.824;7.134;2023-04-24T06:54:27;169.00;;;140.57;;
20067;SDS011;10194;50.824;7.134;2023-04-24T06:56:53;170.13;;;143.77;;
20067;SDS011;10194;50.824;7.134;2023-04-24T06:59:20;164.50;;;131.53;;
20067;SDS011;10194;50.824;7.134;2023-04-24T07:01:46;161.73;;;127.00;;
20067;SDS011;10194;50.824;7.134;2023-04-24T07:04:11;159.57;;;122.67;;
20067;SDS011;10194;50.824;7.134;2023-04-24T07:06:38;164.57;;;130.97;;
20067;SDS011;10194;50.824;7.134;2023-04-24T07:09:04;165.27;;;133.20;;
20067;SDS011;10194;50.824;7.134;2023-04-24T07:11:30;166.33;;;136.83;;
20067;SDS011;10194;50.824;7.134;2023-04-24T07:13:56;166.60;;;143.17;;
20067;SDS011;10194;50.824;7.134;2023-04-24T07:16:22;171.47;;;151.90;;
20067;SDS011;10194;50.824;7.134;2023-04-24T07:18:48;181.67;;;162.17;;
20067;SDS011;10194;50.824;7.134;2023-04-24T07:21:13;174.47;;;153.47;;
20067;SDS011;10194;50.824;7.134;2023-04-24T07:23:39;183.97;;;164.27;;
20067;SDS011;10194;50.824;7.134;2023-04-24T07:26:06;188.50;;;168.60;;
20067;SDS011;10194;50.824;7.134;2023-04-24T07:28:32;174.63;;;155.57;;
20067;SDS011;10194;50.824;7.134;2023-04-24T07:30:57;181.63;;;162.30;;
20067;SDS011;10194;50.824;7.134;2023-04-24T07:33:24;205.00;;;184.63;;
20067;SDS011;10194;50.824;7.134;2023-04-24T07:35:52;216.57;;;195.20;;
20067;SDS011;10194;50.824;7.134;2023-04-24T07:38:18;215.20;;;194.43;;
20067;SDS011;10194;50.824;7.134;2023-04-24T07:40:47;221.40;;;200.30;;
20067;SDS011;10194;50.824;7.134;2023-04-24T07:43:13;212.20;;;191.47;;
20067;SDS011;10194;50.824;7.134;2023-04-24T07:45:39;213.57;;;192.77;;
20067;SDS011;10194;50.824;7.134;2023-04-24T07:48:06;216.90;;;195.47;;
20067;SDS011;10194;50.824;7.134;2023-04-24T07:50:33;226.43;;;204.77;;
20067;SDS011;10194;50.824;7.134;2023-04-24T07:53:00;223.23;;;201.57;;
20067;SDS011;10194;50.824;7.134;2023-04-24T07:55:27;222.20;;;200.90;;
20067;SDS011;10194;50.824;7.134;2023-04-24T07:57:52;227.13;;;205.63;;
20067;SDS011;10194;50.824;7.134;2023-04-24T08:00:18;224.17;;;202.77;;
20067;SDS011;10194;50.824;7.134;2023-04-24T08:02:45;219.63;;;198.63;;
20067;SDS011;10194;50.824;7.134;2023-04-24T08:05:10;219.93;;;198.90;;
20067;SDS011;10194;50.824;7.134;2023-04-24T08:07:36;210.40;;;189.90;;
20067;SDS011;10194;50.824;7.134;2023-04-24T08:10:03;214.37;;;193.63;;
20067;SDS011;10194;50.824;7.134;2023-04-24T08:12:29;206.70;;;185.90;;
20067;SDS011;10194;50.824;7.134;2023-04-24T08:14:55;202.27;;;181.80;;
20067;SDS011;10194;50.824;7.134;2023-04-24T08:17:21;196.83;;;175.93;;
20067;SDS011;10194;50.824;7.134;2023-04-24T08:19:47;187.80;;;167.37;;
20067;SDS011;10194;50.824;7.134;2023-04-24T08:22:16;189.73;;;169.27;;
20067;SDS011;10194;50.824;7.134;2023-04-24T08:24:42;187.70;;;167.07;;
20067;SDS011;10194;50.824;7.134;2023-04-24T08:27:09;187.97;;;166.93;;
20067;SDS011;10194;50.824;7.134;2023-04-24T08:29:35;195.60;;;174.50;;
20067;SDS011;10194;50.824;7.134;2023-04-24T08:32:01;193.37;;;172.60;;
20067;SDS011;10194;50.824;7.134;2023-04-24T08:34:27;198.20;;;177.40;;
20067;SDS011;10194;50.824;7.134;2023-04-24T08:36:53;197.57;;;176.87;;
20067;SDS011;10194;50.824;7.134;2023-04-24T08:39:19;200.27;;;179.00;;
20067;SDS011;10194;50.824;7.134;2023-04-24T08:41:45;196.17;;;175.60;;
20067;SDS011;10194;50.824;7.134;2023-04-24T08:44:13;192.67;;;172.10;;
20067;SDS011;10194;50.824;7.134;2023-04-24T08:46:41;195.30;;;174.37;;
20067;SDS011;10194;50.824;7.134;2023-04-24T08:49:13;188.30;;;167.77;;
20067;SDS011;10194;50.824;7.134;2023-04-24T08:51:43;188.20;;;160.53;;
20067;SDS011;10194;50.824;7.134;2023-04-24T08:54:11;184.30;;;156.60;;
20067;SDS011;10194;50.824;7.134;2023-04-24T08:56:37;185.90;;;152.87;;
20067;SDS011;10194;50.824;7.134;2023-04-24T08:59:05;182.30;;;143.83;;
20067;SDS011;10194;50.824;7.134;2023-04-24T09:01:32;182.10;;;144.50;;
20067;SDS011;10194;50.824;7.134;2023-04-24T09:04:00;184.37;;;142.03;;
20067;SDS011;10194;50.824;7.134;2023-04-24T09:06:28;182.87;;;144.47;;
20067;SDS011;10194;50.824;7.134;2023-04-24T09:08:57;183.60;;;142.57;;
20067;SDS011;10194;50.824;7.134;2023-04-24T09:11:26;182.50;;;139.27;;
20067;SDS011;10194;50.824;7.134;2023-04-24T09:13:53;184.43;;;143.53;;
20067;SDS011;10194;50.824;7.134;2023-04-24T09:16:20;184.33;;;146.07;;
20067;SDS011;10194;50.824;7.134;2023-04-24T09:18:45;190.97;;;145.40;;
20067;SDS011;10194;50.824;7.134;2023-04-24T09:21:11;186.47;;;147.53;;
20067;SDS011;10194;50.824;7.134;2023-04-24T09:23:37;187.20;;;144.67;;
20067;SDS011;10194;50.824;7.134;2023-04-24T09:26:04;191.20;;;146.40;;
20067;SDS011;10194;50.824;7.134;2023-04-24T09:28:31;185.53;;;139.07;;
20067;SDS011;10194;50.824;7.134;2023-04-24T09:31:06;188.53;;;144.93;;
20067;SDS011;10194;50.824;7.134;2023-04-24T09:33:38;187.33;;;142.27;;
20067;SDS011;10194;50.824;7.134;2023-04-24T09:36:04;187.07;;;141.67;;
20067;SDS011;10194;50.824;7.134;2023-04-24T09:38:34;188.67;;;149.40;;
20067;SDS011;10194;50.824;7.134;2023-04-24T09:41:03;188.90;;;149.80;;
20067;SDS011;10194;50.824;7.134;2023-04-24T09:43:32;189.70;;;154.33;;
20067;SDS011;10194;50.824;7.134;2023-04-24T09:45:59;189.27;;;158.43;;
20067;SDS011;10194;50.824;7.134;2023-04-24T09:48:34;191.07;;;160.70;;
20067;SDS011;10194;50.824;7.134;2023-04-24T09:51:04;193.73;;;161.47;;
20067;SDS011;10194;50.824;7.134;2023-04-24T09:53:37;194.00;;;164.20;;
20067;SDS011;10194;50.824;7.134;2023-04-24T09:56:07;194.73;;;173.33;;
20067;SDS011;10194;50.824;7.134;2023-04-24T09:58:35;189.00;;;158.23;;
20067;SDS011;10194;50.824;7.134;2023-04-24T10:01:01;189.93;;;163.20;;
20067;SDS011;10194;50.824;7.134;2023-04-24T10:03:31;191.17;;;163.70;;
20067;SDS011;10194;50.824;7.134;2023-04-24T10:05:59;192.93;;;170.87;;
20067;SDS011;10194;50.824;7.134;2023-04-24T10:08:26;196.60;;;173.83;;
20067;SDS011;10194;50.824;7.134;2023-04-24T10:10:58;199.93;;;178.27;;
20067;SDS011;10194;50.824;7.134;2023-04-24T10:13:26;197.53;;;176.17;;
20067;SDS011;10194;50.824;7.134;2023-04-24T10:15:52;202.80;;;181.13;;
20067;SDS011;10194;50.824;7.134;2023-04-24T10:18:19;209.20;;;187.30;;
20067;SDS011;10194;50.824;7.134;2023-04-24T10:20:46;207.33;;;185.63;;
20067;SDS011;10194;50.824;7.134;2023-04-24T10:23:13;217.83;;;196.07;;
20067;SDS011;10194;50.824;7.134;2023-04-24T10:25:40;215.43;;;193.47;;
20067;SDS011;10194;50.824;7.134;2023-04-24T10:28:06;218.50;;;196.40;;
20067;SDS011;10194;50.824;7.134;2023-04-24T10:30:32;220.37;;;198.40;;
20067;SDS011;10194;50.824;7.134;2023-04-24T10:33:03;224.17;;;201.83;;
20067;SDS011;10194;50.824;7.134;2023-04-24T10:35:31;232.80;;;210.43;;
20067;SDS011;10194;50.824;7.134;2023-04-24T10:38:12;228.93;;;206.73;;
20067;SDS011;10194;50.824;7.134;2023-04-24T10:40:39;235.50;;;212.60;;
20067;SDS011;10194;50.824;7.134;2023-04-24T10:43:05;237.93;;;215.60;;
20067;SDS011;10194;50.824;7.134;2023-04-24T10:45:36;233.10;;;210.80;;
20067;SDS011;10194;50.824;7.134;2023-04-24T10:48:04;234.10;;;211.90;;
20067;SDS011;10194;50.824;7.134;2023-04-24T10:50:44;231.47;;;208.97;;
20067;SDS011;10194;50.824;7.134;2023-04-24T10:53:23;235.10;;;212.57;;
20067;SDS011;10194;50.824;7.134;2023-04-24T10:56:02;232.27;;;209.57;;
20067;SDS011;10194;50.824;7.134;2023-04-24T10:59:04;235.90;;;213.20;;
20067;SDS011;10194;50.824;7.134;2023-04-24T11:01:27;238.17;;;215.27;;
20067;SDS011;10194;50.824;7.134;2023-04-24T11:04:01;238.23;;;215.53;;
20067;SDS011;10194;50.824;7.134;2023-04-24T11:06:32;235.23;;;212.63;;
20067;SDS011;10194;50.824;7.134;2023-04-24T11:09:18;228.00;;;205.63;;
20067;SDS011;10194;50.824;7.134;2023-04-24T11:11:46;232.13;;;209.93;;
20067;SDS011;10194;50.824;7.134;2023-04-24T11:14:16;223.67;;;201.60;;
20067;SDS011;10194;50.824;7.134;2023-04-24T11:16:47;226.67;;;204.53;;
20067;SDS011;10194;50.824;7.134;2023-04-24T11:19:22;230.67;;;207.67;;
20067;SDS011;10194;50.824;7.134;2023-04-24T11:22:00;221.83;;;199.93;;
20067;SDS011;10194;50.824;7.134;2023-04-24T11:24:49;226.60;;;204.17;;
20067;SDS011;10194;50.824;7.134;2023-04-24T11:27:19;227.47;;;205.30;;
20067;SDS011;10194;50.824;7.134;2023-04-24T11:32:25;227.83;;;205.50;;
20067;SDS011;10194;50.824;7.134;2023-04-24T11:35:01;216.00;;;194.63;;
20067;SDS011;10194;50.824;7.134;2023-04-24T11:37:47;217.97;;;196.07;;
20067;SDS011;10194;50.824;7.134;2023-04-24T11:40:16;219.13;;;197.37;;
20067;SDS011;10194;50.824;7.134;2023-04-24T11:42:45;219.43;;;197.73;;
20067;SDS011;10194;50.824;7.134;2023-04-24T11:45:16;221.37;;;199.30;;
20067;SDS011;10194;50.824;7.134;2023-04-24T11:47:53;222.17;;;199.87;;
20067;SDS011;10194;50.824;7.134;2023-04-24T11:50:21;224.63;;;202.53;;
20067;SDS011;10194;50.824;7.134;2023-04-24T11:52:51;219.63;;;197.83;;
20067;SDS011;10194;50.824;7.134;2023-04-24T11:57:46;210.57;;;189.30;;
20067;SDS011;10194;50.824;7.134;2023-04-24T12:00:18;205.20;;;184.07;;
20067;SDS011;10194;50.824;7.134;2023-04-24T12:02:46;202.17;;;181.33;;
20067;SDS011;10194;50.824;7.134;2023-04-24T12:05:24;204.47;;;183.33;;
20067;SDS011;10194;50.824;7.134;2023-04-24T12:07:51;184.50;;;163.40;;
20067;SDS011;10194;50.824;7.134;2023-04-24T12:10:22;183.43;;;157.00;;
20067;SDS011;10194;50.824;7.134;2023-04-24T12:12:51;179.13;;;148.20;;
20067;SDS011;10194;50.824;7.134;2023-04-24T12:15:19;168.30;;;135.03;;
20067;SDS011;10194;50.824;7.134;2023-04-24T12:17:45;176.47;;;145.07;;
20067;SDS011;10194;50.824;7.134;2023-04-24T12:20:12;173.90;;;145.90;;
20067;SDS011;10194;50.824;7.134;2023-04-24T12:22:49;173.43;;;137.40;;
20067;SDS011;10194;50.824;7.134;2023-04-24T12:25:23;172.50;;;129.23;;
20067;SDS011;10194;50.824;7.134;2023-04-24T12:27:55;173.07;;;127.70;;
20067;SDS011;10194;50.824;7.134;2023-04-24T12:30:39;169.53;;;124.30;;
20067;SDS011;10194;50.824;7.134;2023-04-24T12:33:10;165.33;;;120.77;;
20067;SDS011;10194;50.824;7.134;2023-04-24T12:35:36;173.77;;;123.40;;
20067;SDS011;10194;50.824;7.134;2023-04-24T12:38:05;162.73;;;110.87;;
20067;SDS011;10194;50.824;7.134;2023-04-24T12:40:35;161.17;;;114.87;;
20067;SDS011;10194;50.824;7.134;2023-04-24T12:43:01;166.43;;;118.70;;
20067;SDS011;10194;50.824;7.134;2023-04-24T12:45:42;163.53;;;114.00;;
20067;SDS011;10194;50.824;7.134;2023-04-24T12:48:09;164.27;;;120.93;;
20067;SDS011;10194;50.824;7.134;2023-04-24T12:50:34;161.87;;;114.10;;
20067;SDS011;10194;50.824;7.134;2023-04-24T12:53:00;163.40;;;116.07;;
20067;SDS011;10194;50.824;7.134;2023-04-24T12:55:26;164.97;;;118.63;;
20067;SDS011;10194;50.824;7.134;2023-04-24T12:57:52;167.30;;;126.90;;
20067;SDS011;10194;50.824;7.134;2023-04-24T13:00:20;160.53;;;118.07;;
20067;SDS011;10194;50.824;7.134;2023-04-24T13:02:46;158.53;;;112.63;;
20067;SDS011;10194;50.824;7.134;2023-04-24T13:05:11;158.37;;;107.77;;
20067;SDS011;10194;50.824;7.134;2023-04-24T13:07:38;166.20;;;117.13;;
20067;SDS011;10194;50.824;7.134;2023-04-24T13:10:05;164.70;;;117.10;;
20067;SDS011;10194;50.824;7.134;2023-04-24T13:12:32;155.13;;;102.53;;
20067;SDS011;10194;50.824;7.134;2023-04-24T13:14:58;155.23;;;103.50;;
20067;SDS011;10194;50.824;7.134;2023-04-24T13:17:24;151.77;;;95.47;;
20067;SDS011;10194;50.824;7.134;2023-04-24T13:19:50;152.70;;;96.40;;
20067;SDS011;10194;50.824;7.134;2023-04-24T13:22:16;152.70;;;93.53;;
20067;SDS011;10194;50.824;7.134;2023-04-24T13:24:46;149.20;;;93.13;;
20067;SDS011;10194;50.824;7.134;2023-04-24T13:27:13;150.83;;;90.53;;
20067;SDS011;10194;50.824;7.134;2023-04-24T13:29:40;144.53;;;87.07;;
20067;SDS011;10194;50.824;7.134;2023-04-24T13:32:06;144.47;;;84.60;;
20067;SDS011;10194;50.824;7.134;2023-04-24T13:34:32;146.23;;;85.57;;
20067;SDS011;10194;50.824;7.134;2023-04-24T13:36:59;152.47;;;86.57;;
20067;SDS011;10194;50.824;7.134;2023-04-24T13:39:25;151.07;;;87.23;;
20067;SDS011;10194;50.824;7.134;2023-04-24T13:41:51;152.43;;;88.10;;
20067;SDS011;10194;50.824;7.134;2023-04-24T13:44:18;147.63;;;86.83;;
20067;SDS011;10194;50.824;7.134;2023-04-24T13:46:46;147.50;;;90.23;;
20067;SDS011;10194;50.824;7.134;2023-04-24T13:49:13;147.93;;;90.30;;
20067;SDS011;10194;50.824;7.134;2023-04-24T13:51:41;146.27;;;88.87;;
20067;SDS011;10194;50.824;7.134;2023-04-24T13:54:07;147.30;;;87.13;;
20067;SDS011;10194;50.824;7.134;2023-04-24T13:56:33;144.87;;;85.27;;
20067;SDS011;10194;50.824;7.134;2023-04-24T13:58:59;149.53;;;84.70;;
20067;SDS011;10194;50.824;7.134;2023-04-24T14:01:25;143.27;;;81.30;;
20067;SDS011;10194;50.824;7.134;2023-04-24T14:03:54;144.63;;;80.57;;
20067;SDS011;10194;50.824;7.134;2023-04-24T14:06:21;146.00;;;84.53;;